Time;durP1;ratioP1;P1;durP2;ratioP2;P2;SDS_P1;SDS_P2;PMS_P1;PMS_P2;Temp;Humidity;BMP_temperature;BMP_pressure;BME280_temperature;BME280_humidity;BME280_pressure;Samples;Min_cycle;Max_cycle;Signal;HPM_P1;HPM_P2
2022/01/28 00:00:16;;;;;;;32.25;11.50;;;;;;;;;;6281635;22;20012;-78
2022/01/28 00:05:16;;;;;;;32.97;12.55;;;;;;;;;;6276507;22;20008;-79
2022/01/28 00:07:42;;;;;;;40.33;13.50;;;;;;;;;;6250639;22;20000;-79
2022/01/28 00:10:08;;;;;;;33.88;12.35;;;;;;;;;;6276598;22;20017;-78
2022/01/28 00:12:35;;;;;;;35.03;12.57;;;;;;;;;;6276176;22;20005;-79
2022/01/28 00:15:18;;;;;;;30.67;11.88;;;;;;;;;;6278618;22;20004;-78
2022/01/28 00:21:02;;;;;;;34.97;12.32;;;;;;;;;;6276144;22;20086;-78
2022/01/28 00:37:11;;;;;;;27.17;9.43;;;;;;;;;;6276616;22;20064;-78
2022/01/28 00:39:36;;;;;;;25.10;8.65;;;;;;;;;;6229289;22;20068;-78
2022/01/28 00:42:02;;;;;;;21.80;8.50;;;;;;;;;;6279401;22;20055;-77
2022/01/28 00:44:28;;;;;;;22.08;7.70;;;;;;;;;;6277209;22;20079;-77
2022/01/28 00:46:53;;;;;;;26.63;9.57;;;;;;;;;;6249671;22;19995;-78
2022/01/28 00:49:18;;;;;;;24.50;9.30;;;;;;;;;;6276525;22;20003;-78
2022/01/28 00:51:44;;;;;;;24.10;9.60;;;;;;;;;;6276570;22;20419;-77
2022/01/28 00:54:10;;;;;;;22.17;8.38;;;;;;;;;;6276390;22;20007;-78
2022/01/28 00:56:35;;;;;;;26.80;9.82;;;;;;;;;;6277035;22;19995;-78
2022/01/28 00:59:01;;;;;;;29.65;10.15;;;;;;;;;;6275806;22;20427;-77
2022/01/28 01:01:29;;;;;;;30.00;9.55;;;;;;;;;;6248501;22;20000;-77
2022/01/28 01:03:55;;;;;;;29.17;9.65;;;;;;;;;;6253298;22;20458;-77
2022/01/28 01:06:21;;;;;;;30.33;10.35;;;;;;;;;;6250504;22;20423;-77
2022/01/28 01:08:46;;;;;;;25.65;9.98;;;;;;;;;;6276100;22;20033;-77
2022/01/28 01:11:12;;;;;;;31.85;9.98;;;;;;;;;;6249092;22;20000;-77
2022/01/28 01:13:40;;;;;;;24.17;9.02;;;;;;;;;;6248511;22;20003;-78
2022/01/28 01:16:07;;;;;;;25.55;8.85;;;;;;;;;;6199160;22;20006;-77
2022/01/28 01:18:50;;;;;;;23.08;8.25;;;;;;;;;;6223636;22;20023;-77
2022/01/28 01:21:25;;;;;;;28.42;9.55;;;;;;;;;;6252728;22;20010;-77
2022/01/28 01:23:54;;;;;;;26.90;9.80;;;;;;;;;;6225542;22;20388;-77
2022/01/28 01:26:27;;;;;;;28.52;11.20;;;;;;;;;;6251933;22;20007;-78
2022/01/28 01:28:52;;;;;;;29.42;10.48;;;;;;;;;;6252773;22;20431;-77
2022/01/28 01:31:18;;;;;;;24.95;9.48;;;;;;;;;;6248657;22;20010;-77
2022/01/28 01:33:51;;;;;;;23.77;9.45;;;;;;;;;;6223265;22;20011;-77
2022/01/28 01:36:16;;;;;;;27.65;10.10;;;;;;;;;;6201241;22;20072;-77
2022/01/28 01:38:42;;;;;;;32.60;11.98;;;;;;;;;;6248466;22;20422;-77
2022/01/28 01:41:14;;;;;;;27.40;9.60;;;;;;;;;;6223519;22;20097;-77
2022/01/28 01:47:14;;;;;;;21.42;8.55;;;;;;;;;;6224548;22;20057;-78
2022/01/28 01:54:26;;;;;;;27.73;9.95;;;;;;;;;;6230841;22;20023;-77
2022/01/28 01:56:53;;;;;;;24.20;9.32;;;;;;;;;;6198031;22;20347;-78
2022/01/28 01:59:18;;;;;;;24.05;8.70;;;;;;;;;;6223482;22;20000;-78
2022/01/28 02:01:44;;;;;;;26.42;10.27;;;;;;;;;;6223032;22;20003;-77
2022/01/28 02:04:09;;;;;;;29.13;9.55;;;;;;;;;;6222972;22;20034;-78
2022/01/28 02:06:35;;;;;;;25.50;8.90;;;;;;;;;;6248145;22;20004;-78
2022/01/28 02:09:00;;;;;;;21.60;8.75;;;;;;;;;;6223084;22;20010;-78
2022/01/28 02:11:26;;;;;;;25.60;9.35;;;;;;;;;;6277035;22;20006;-78
2022/01/28 02:13:52;;;;;;;30.30;9.35;;;;;;;;;;6255093;22;20350;-80
2022/01/28 02:16:18;;;;;;;22.27;8.05;;;;;;;;;;6250734;22;20004;-77
2022/01/28 02:18:43;;;;;;;28.00;8.82;;;;;;;;;;6248307;22;20038;-77
2022/01/28 02:21:11;;;;;;;26.08;8.75;;;;;;;;;;6247287;22;20095;-78
2022/01/28 02:23:38;;;;;;;22.58;9.00;;;;;;;;;;6274945;22;20419;-77
2022/01/28 02:26:04;;;;;;;27.85;9.57;;;;;;;;;;6248326;22;20078;-78
2022/01/28 02:28:33;;;;;;;26.30;9.45;;;;;;;;;;6197924;22;20086;-77
2022/01/28 02:31:03;;;;;;;29.75;9.48;;;;;;;;;;6199264;22;20008;-77
2022/01/28 02:33:29;;;;;;;22.95;8.00;;;;;;;;;;6248377;22;20007;-77
2022/01/28 02:35:55;;;;;;;22.85;8.55;;;;;;;;;;6274604;22;20008;-78
2022/01/28 02:38:22;;;;;;;27.98;9.98;;;;;;;;;;6250195;22;20443;-77
2022/01/28 02:40:54;;;;;;;24.40;9.48;;;;;;;;;;6198460;22;20003;-77
2022/01/28 02:45:51;;;;;;;25.08;8.95;;;;;;;;;;6248728;22;20008;-77
2022/01/28 02:48:25;;;;;;;26.13;8.65;;;;;;;;;;6198688;22;19999;-77
2022/01/28 02:53:39;;;;;;;25.55;9.00;;;;;;;;;;6282079;22;20026;-78
2022/01/28 02:56:12;;;;;;;24.58;8.23;;;;;;;;;;6275533;22;20339;-77
2022/01/28 02:58:38;;;;;;;24.88;8.18;;;;;;;;;;6287357;22;20368;-79
2022/01/28 03:01:04;;;;;;;22.25;8.18;;;;;;;;;;6250359;22;20014;-78
2022/01/28 03:03:30;;;;;;;21.75;8.65;;;;;;;;;;6247992;22;20082;-77
2022/01/28 03:05:55;;;;;;;22.35;8.05;;;;;;;;;;6274621;22;20008;-77
2022/01/28 03:08:27;;;;;;;19.92;7.72;;;;;;;;;;6247954;22;20007;-78
2022/01/28 03:16:16;;;;;;;26.73;9.88;;;;;;;;;;6252213;22;20014;-77
2022/01/28 03:18:48;;;;;;;21.73;7.95;;;;;;;;;;6248202;22;20018;-78
2022/01/28 03:21:40;;;;;;;22.40;8.38;;;;;;;;;;6247942;22;20019;-77
2022/01/28 03:24:07;;;;;;;21.48;7.88;;;;;;;;;;6235836;22;20011;-78
2022/01/28 03:26:32;;;;;;;21.00;6.90;;;;;;;;;;6224560;22;20385;-77
2022/01/28 03:28:58;;;;;;;20.23;7.25;;;;;;;;;;6248461;22;20010;-77
2022/01/28 03:31:23;;;;;;;18.92;8.10;;;;;;;;;;6223264;22;20058;-78
2022/01/28 03:33:49;;;;;;;23.42;8.18;;;;;;;;;;6250548;22;20014;-77
2022/01/28 03:36:15;;;;;;;19.67;7.85;;;;;;;;;;6277429;22;20003;-77
2022/01/28 03:38:41;;;;;;;21.90;7.97;;;;;;;;;;6249741;22;20419;-77
2022/01/28 03:41:12;;;;;;;27.17;8.35;;;;;;;;;;6224230;22;20075;-77
2022/01/28 03:43:38;;;;;;;26.58;9.15;;;;;;;;;;6201372;22;20417;-77
2022/01/28 03:46:04;;;;;;;24.83;9.07;;;;;;;;;;6199939;22;20004;-78
2022/01/28 03:48:29;;;;;;;22.70;8.48;;;;;;;;;;6228003;22;20458;-77
2022/01/28 03:50:55;;;;;;;22.65;9.32;;;;;;;;;;6199546;22;20002;-77
2022/01/28 03:53:20;;;;;;;25.13;8.55;;;;;;;;;;6199657;22;20039;-77
2022/01/28 03:55:46;;;;;;;20.13;7.68;;;;;;;;;;6223987;22;20007;-77
2022/01/28 03:58:13;;;;;;;19.52;7.57;;;;;;;;;;6249394;22;20004;-77
2022/01/28 04:00:39;;;;;;;16.13;6.53;;;;;;;;;;6249782;22;20438;-77
2022/01/28 04:03:38;;;;;;;19.80;6.80;;;;;;;;;;6276133;22;20086;-77
2022/01/28 04:11:29;;;;;;;16.48;7.15;;;;;;;;;;6261317;22;20046;-78
2022/01/28 04:13:58;;;;;;;28.40;9.25;;;;;;;;;;6209310;22;20008;-77
2022/01/28 04:17:19;;;;;;;26.08;7.75;;;;;;;;;;6250237;22;20030;-77
2022/01/28 04:19:18;;;;;;;25.73;8.57;;;;;;;;;;6275925;22;20486;-78
2022/01/28 04:21:43;;;;;;;24.58;8.43;;;;;;;;;;6276742;22;20023;-77
2022/01/28 04:24:09;;;;;;;22.08;8.52;;;;;;;;;;6275890;22;20007;-77
2022/01/28 04:26:34;;;;;;;23.70;8.50;;;;;;;;;;6249535;22;20327;-77
2022/01/28 04:28:59;;;;;;;27.35;9.27;;;;;;;;;;6249238;22;20026;-77
2022/01/28 04:31:25;;;;;;;27.52;9.48;;;;;;;;;;6276476;22;20000;-78
2022/01/28 04:33:53;;;;;;;28.63;9.50;;;;;;;;;;6227196;22;20007;-78
2022/01/28 04:36:19;;;;;;;26.60;10.23;;;;;;;;;;6250318;22;20031;-78
2022/01/28 04:44:22;;;;;;;22.27;8.57;;;;;;;;;;6252703;22;20011;-77
2022/01/28 04:47:07;;;;;;;22.17;8.32;;;;;;;;;;6225690;22;20435;-78
2022/01/28 04:49:47;;;;;;;23.33;8.18;;;;;;;;;;6253356;22;20011;-77
2022/01/28 04:55:09;;;;;;;27.13;8.88;;;;;;;;;;6252927;22;20014;-77
2022/01/28 05:26:53;;;;;;;41.90;12.15;;;;;;;;;;6141390;22;20010;-78
2022/01/28 05:29:18;;;;;;;29.95;11.57;;;;;;;;;;6232919;22;20003;-78
2022/01/28 05:31:44;;;;;;;29.10;10.30;;;;;;;;;;6223592;22;20018;-79
2022/01/28 05:34:09;;;;;;;30.25;10.52;;;;;;;;;;6275505;22;20055;-79
2022/01/28 05:36:35;;;;;;;28.92;10.18;;;;;;;;;;6222908;22;20407;-79
2022/01/28 05:39:00;;;;;;;26.13;9.57;;;;;;;;;;6198441;22;20004;-78
2022/01/28 05:41:26;;;;;;;29.35;9.50;;;;;;;;;;6249045;22;20004;-79
2022/01/28 05:43:51;;;;;;;30.83;10.10;;;;;;;;;;6230676;22;20019;-78
2022/01/28 05:46:18;;;;;;;36.00;10.82;;;;;;;;;;6281614;22;20003;-79
2022/01/28 05:48:44;;;;;;;44.75;11.88;;;;;;;;;;6248365;22;20004;-78
2022/01/28 05:51:11;;;;;;;48.17;14.48;;;;;;;;;;6248462;22;20022;-78
2022/01/28 05:53:37;;;;;;;43.88;13.50;;;;;;;;;;6199771;22;20008;-79
2022/01/28 05:56:02;;;;;;;48.97;15.25;;;;;;;;;;6297716;22;19984;-79
2022/01/28 05:58:28;;;;;;;55.30;17.42;;;;;;;;;;6261429;22;19992;-78
2022/01/28 06:00:53;;;;;;;53.80;15.55;;;;;;;;;;6275286;22;20000;-79
2022/01/28 06:03:19;;;;;;;34.38;13.10;;;;;;;;;;6275537;22;20018;-78
2022/01/28 06:05:45;;;;;;;35.20;12.77;;;;;;;;;;6248359;22;20078;-78
2022/01/28 06:08:11;;;;;;;51.53;18.70;;;;;;;;;;6280782;22;20125;-78
2022/01/28 06:10:36;;;;;;;54.85;17.63;;;;;;;;;;6279510;22;20419;-79
2022/01/28 06:13:02;;;;;;;79.68;30.83;;;;;;;;;;6275711;22;20019;-78
2022/01/28 06:15:27;;;;;;;59.50;22.42;;;;;;;;;;6274171;22;20387;-78
2022/01/28 06:17:53;;;;;;;50.40;15.93;;;;;;;;;;6275047;22;20304;-79
2022/01/28 06:20:19;;;;;;;47.97;16.27;;;;;;;;;;6222437;22;20079;-78
2022/01/28 06:22:45;;;;;;;53.17;16.35;;;;;;;;;;6248370;22;20099;-78
2022/01/28 06:25:11;;;;;;;43.70;15.23;;;;;;;;;;6224342;22;20527;-79
2022/01/28 06:27:36;;;;;;;45.05;14.88;;;;;;;;;;6222922;22;20054;-78
2022/01/28 06:30:04;;;;;;;36.65;12.25;;;;;;;;;;6250113;22;20003;-78
2022/01/28 06:32:33;;;;;;;37.67;11.45;;;;;;;;;;6279640;22;20049;-78
2022/01/28 06:35:05;;;;;;;32.38;11.68;;;;;;;;;;6247942;22;20014;-78
2022/01/28 06:37:31;;;;;;;34.17;11.75;;;;;;;;;;6249895;22;20000;-78
2022/01/28 06:39:56;;;;;;;36.75;11.95;;;;;;;;;;6222726;22;20488;-78
2022/01/28 06:42:22;;;;;;;37.35;13.07;;;;;;;;;;6248152;22;20003;-78
2022/01/28 06:44:47;;;;;;;36.65;12.38;;;;;;;;;;6249141;22;20012;-79
2022/01/28 06:47:12;;;;;;;41.90;12.85;;;;;;;;;;6248047;22;20023;-79
2022/01/28 06:49:38;;;;;;;33.75;13.20;;;;;;;;;;6222414;22;20004;-78
2022/01/28 06:52:05;;;;;;;39.75;13.60;;;;;;;;;;6222558;22;20000;-79
2022/01/28 06:54:30;;;;;;;52.53;15.18;;;;;;;;;;6281850;22;20056;-79
2022/01/28 06:56:56;;;;;;;52.22;17.13;;;;;;;;;;6249624;22;20000;-78
2022/01/28 06:59:21;;;;;;;47.45;16.38;;;;;;;;;;6274898;22;20078;-79
2022/01/28 07:01:47;;;;;;;46.88;16.63;;;;;;;;;;6247744;22;20010;-78
2022/01/28 07:04:14;;;;;;;42.63;15.20;;;;;;;;;;6247631;22;20014;-78
2022/01/28 07:06:40;;;;;;;35.15;13.13;;;;;;;;;;6248720;22;20055;-78
2022/01/28 07:09:07;;;;;;;34.15;14.05;;;;;;;;;;6250454;22;20070;-79
2022/01/28 07:11:33;;;;;;;43.38;15.20;;;;;;;;;;6276859;22;20003;-79
2022/01/28 07:14:00;;;;;;;59.95;25.23;;;;;;;;;;6225403;22;20006;-79
2022/01/28 07:16:25;;;;;;;38.53;14.80;;;;;;;;;;6278590;22;20011;-80
2022/01/28 07:18:51;;;;;;;37.05;14.27;;;;;;;;;;6282256;22;19999;-79
2022/01/28 07:21:16;;;;;;;29.30;11.82;;;;;;;;;;6249964;22;20020;-79
2022/01/28 07:23:42;;;;;;;37.83;13.35;;;;;;;;;;6277913;22;20007;-78
2022/01/28 07:26:07;;;;;;;39.80;14.88;;;;;;;;;;6228516;22;20431;-78
2022/01/28 07:28:35;;;;;;;40.20;14.70;;;;;;;;;;6281090;22;20031;-79
2022/01/28 07:31:00;;;;;;;37.92;15.35;;;;;;;;;;6277734;22;20004;-78
2022/01/28 07:33:26;;;;;;;27.55;12.85;;;;;;;;;;6250650;22;20375;-78
2022/01/28 07:35:52;;;;;;;33.70;11.15;;;;;;;;;;6225929;22;20350;-78
2022/01/28 07:38:17;;;;;;;40.45;15.07;;;;;;;;;;6228042;22;20078;-78
2022/01/28 07:40:42;;;;;;;53.08;17.08;;;;;;;;;;6282480;22;20006;-79
2022/01/28 07:43:08;;;;;;;81.97;25.02;;;;;;;;;;6278190;22;20063;-79
2022/01/28 07:45:34;;;;;;;43.63;14.00;;;;;;;;;;6279219;22;20004;-78
2022/01/28 07:47:59;;;;;;;43.33;15.32;;;;;;;;;;6279776;22;20007;-79
2022/01/28 07:50:25;;;;;;;34.15;12.00;;;;;;;;;;6225223;22;20045;-79
2022/01/28 07:52:50;;;;;;;46.42;12.27;;;;;;;;;;6277908;22;20031;-79
2022/01/28 07:55:16;;;;;;;30.35;10.52;;;;;;;;;;6278152;22;20415;-78
2022/01/28 07:57:42;;;;;;;35.45;11.35;;;;;;;;;;6278606;22;20006;-78
2022/01/28 08:00:09;;;;;;;35.53;12.55;;;;;;;;;;6232265;22;20008;-79
2022/01/28 08:02:35;;;;;;;31.88;10.60;;;;;;;;;;6225570;22;20057;-78
2022/01/28 08:05:00;;;;;;;39.28;12.15;;;;;;;;;;6226123;22;20014;-77
2022/01/28 08:07:26;;;;;;;38.25;12.48;;;;;;;;;;6226584;22;19999;-78
2022/01/28 08:09:56;;;;;;;49.60;15.27;;;;;;;;;;6251813;22;20004;-77
2022/01/28 08:12:21;;;;;;;39.65;12.73;;;;;;;;;;6277618;22;20516;-78
2022/01/28 08:14:47;;;;;;;38.20;12.60;;;;;;;;;;6277096;22;20003;-78
2022/01/28 08:17:13;;;;;;;38.25;11.82;;;;;;;;;;6251522;22;20003;-77
2022/01/28 08:19:38;;;;;;;43.63;13.27;;;;;;;;;;6255942;22;20011;-78
2022/01/28 08:22:04;;;;;;;32.70;11.48;;;;;;;;;;6202306;22;20008;-77
2022/01/28 08:24:29;;;;;;;40.40;13.20;;;;;;;;;;6225596;22;20004;-78
2022/01/28 08:26:55;;;;;;;39.90;14.82;;;;;;;;;;6226140;22;20035;-79
2022/01/28 08:29:21;;;;;;;38.33;13.48;;;;;;;;;;6200425;22;20007;-79
2022/01/28 08:31:47;;;;;;;37.85;13.70;;;;;;;;;;6277928;22;20004;-78
2022/01/28 08:34:12;;;;;;;39.00;13.98;;;;;;;;;;6276986;22;20022;-77
2022/01/28 08:36:38;;;;;;;40.58;13.98;;;;;;;;;;6277811;22;20027;-78
2022/01/28 08:39:05;;;;;;;47.90;15.65;;;;;;;;;;6227252;22;20010;-79
2022/01/28 08:41:31;;;;;;;43.17;14.02;;;;;;;;;;6260783;22;20476;-79
2022/01/28 08:43:57;;;;;;;37.15;13.52;;;;;;;;;;6276315;22;20015;-78
2022/01/28 08:46:22;;;;;;;40.90;13.88;;;;;;;;;;6276443;22;20000;-79
2022/01/28 08:48:48;;;;;;;55.15;15.65;;;;;;;;;;6249116;22;20003;-79
2022/01/28 08:51:13;;;;;;;47.50;15.27;;;;;;;;;;6276964;22;20067;-79
2022/01/28 08:53:39;;;;;;;42.25;13.88;;;;;;;;;;6268957;22;19992;-79
2022/01/28 08:56:05;;;;;;;33.75;13.23;;;;;;;;;;6252616;22;20023;-79
2022/01/28 08:58:31;;;;;;;52.22;19.63;;;;;;;;;;6226188;22;20008;-80
2022/01/28 09:00:56;;;;;;;36.60;13.40;;;;;;;;;;6228717;22;20000;-79
2022/01/28 09:03:22;;;;;;;41.78;15.32;;;;;;;;;;6248749;22;20366;-79
2022/01/28 09:05:48;;;;;;;39.58;14.52;;;;;;;;;;6248868;22;20440;-79
2022/01/28 09:08:13;;;;;;;41.80;14.90;;;;;;;;;;6275649;22;20019;-78
2022/01/28 09:10:43;;;;;;;46.80;15.45;;;;;;;;;;6250485;22;20398;-79
2022/01/28 09:13:21;;;;;;;43.92;15.50;;;;;;;;;;6226369;22;20004;-79
2022/01/28 09:15:46;;;;;;;44.97;15.70;;;;;;;;;;6227620;22;20007;-80
2022/01/28 09:18:12;;;;;;;43.65;15.05;;;;;;;;;;6250708;22;20343;-79
2022/01/28 09:20:38;;;;;;;38.30;12.48;;;;;;;;;;6280866;22;20010;-78
2022/01/28 09:23:03;;;;;;;28.13;11.07;;;;;;;;;;6278367;22;20025;-78
2022/01/28 09:25:30;;;;;;;28.92;9.95;;;;;;;;;;6277271;22;20122;-80
2022/01/28 09:27:55;;;;;;;29.23;11.65;;;;;;;;;;6249366;22;19999;-81
2022/01/28 09:30:21;;;;;;;37.58;11.93;;;;;;;;;;6276544;22;20049;-80
2022/01/28 09:32:46;;;;;;;51.83;18.48;;;;;;;;;;6282383;22;20010;-80
2022/01/28 09:35:12;;;;;;;50.38;18.02;;;;;;;;;;6226286;22;20004;-82
2022/01/28 09:37:38;;;;;;;48.95;17.52;;;;;;;;;;6250234;22;20346;-80
2022/01/28 09:40:04;;;;;;;45.50;16.85;;;;;;;;;;6253305;22;20010;-80
2022/01/28 09:42:32;;;;;;;53.00;18.38;;;;;;;;;;6250946;22;20000;-80
2022/01/28 09:44:58;;;;;;;45.58;16.80;;;;;;;;;;6277316;22;20000;-80
2022/01/28 09:47:24;;;;;;;47.47;18.35;;;;;;;;;;6224387;22;20003;-80
2022/01/28 09:49:49;;;;;;;40.45;15.05;;;;;;;;;;6223880;22;20023;-80
2022/01/28 09:52:15;;;;;;;41.03;14.85;;;;;;;;;;6249876;22;20516;-80
2022/01/28 09:54:46;;;;;;;39.42;15.55;;;;;;;;;;6279424;22;20026;-80
2022/01/28 09:57:11;;;;;;;42.80;15.98;;;;;;;;;;6251718;22;20000;-80
2022/01/28 09:59:37;;;;;;;40.05;15.10;;;;;;;;;;6253628;22;19996;-79
2022/01/28 10:02:03;;;;;;;47.65;17.60;;;;;;;;;;6200760;22;20014;-78
2022/01/28 10:04:29;;;;;;;80.43;28.75;;;;;;;;;;6276968;22;20403;-79
2022/01/28 10:06:55;;;;;;;39.40;15.65;;;;;;;;;;6276170;22;20015;-81
2022/01/28 10:09:23;;;;;;;62.10;23.75;;;;;;;;;;6277478;22;20071;-78
2022/01/28 10:11:52;;;;;;;54.45;18.80;;;;;;;;;;6250253;22;20014;-78
2022/01/28 10:14:23;;;;;;;51.08;22.30;;;;;;;;;;6250353;22;20012;-80
2022/01/28 10:16:57;;;;;;;74.00;29.65;;;;;;;;;;6276347;22;20086;-80
2022/01/28 10:19:28;;;;;;;75.30;28.13;;;;;;;;;;6279039;22;20035;-78
2022/01/28 10:21:55;;;;;;;67.60;22.55;;;;;;;;;;6201438;22;20386;-79
2022/01/28 10:24:24;;;;;;;49.85;18.90;;;;;;;;;;6224564;22;20323;-79
2022/01/28 10:26:56;;;;;;;43.67;15.50;;;;;;;;;;6248982;22;20003;-79
2022/01/28 10:29:27;;;;;;;49.88;17.55;;;;;;;;;;6276241;22;20003;-79
2022/01/28 10:31:53;;;;;;;40.22;14.68;;;;;;;;;;6276140;22;20007;-78
2022/01/28 10:34:21;;;;;;;46.80;15.13;;;;;;;;;;6279496;22;20484;-79
2022/01/28 10:36:47;;;;;;;38.85;13.85;;;;;;;;;;6276395;22;20004;-79
2022/01/28 10:39:15;;;;;;;51.45;16.05;;;;;;;;;;6252284;22;20039;-79
2022/01/28 10:41:52;;;;;;;43.08;13.25;;;;;;;;;;6225862;22;20023;-79
2022/01/28 10:44:17;;;;;;;42.17;13.88;;;;;;;;;;6248488;22;20069;-79
2022/01/28 10:46:50;;;;;;;54.25;16.23;;;;;;;;;;6275902;22;20074;-79
2022/01/28 10:49:21;;;;;;;38.75;13.48;;;;;;;;;;6225470;22;20031;-80
2022/01/28 10:51:49;;;;;;;43.40;14.05;;;;;;;;;;6249741;22;20004;-78
2022/01/28 10:54:20;;;;;;;26.33;11.13;;;;;;;;;;6226011;22;20435;-79
2022/01/28 10:56:50;;;;;;;35.97;12.38;;;;;;;;;;6255397;22;20052;-78
2022/01/28 10:59:17;;;;;;;36.13;15.27;;;;;;;;;;6228101;22;20007;-79
2022/01/28 11:01:43;;;;;;;36.75;12.40;;;;;;;;;;6249544;22;20004;-78
2022/01/28 11:04:16;;;;;;;48.47;18.10;;;;;;;;;;6247357;22;20042;-78
2022/01/28 11:06:43;;;;;;;27.30;10.70;;;;;;;;;;6247919;22;19999;-80
2022/01/28 11:09:09;;;;;;;44.58;12.55;;;;;;;;;;6197252;22;20008;-79
2022/01/28 11:11:35;;;;;;;31.73;11.65;;;;;;;;;;6197200;22;20000;-80
2022/01/28 11:14:02;;;;;;;52.42;12.07;;;;;;;;;;6247543;22;20342;-77
2022/01/28 11:16:27;;;;;;;33.92;11.05;;;;;;;;;;6250237;22;20003;-79
2022/01/28 11:18:54;;;;;;;33.95;12.60;;;;;;;;;;6201716;22;20029;-79
2022/01/28 11:21:27;;;;;;;31.27;12.35;;;;;;;;;;6199396;22;20343;-79
2022/01/28 11:23:55;;;;;;;25.90;9.73;;;;;;;;;;6226774;22;20004;-78
2022/01/28 11:26:50;;;;;;;37.97;14.25;;;;;;;;;;6224390;22;20411;-79
2022/01/28 11:29:21;;;;;;;56.50;18.10;;;;;;;;;;6248884;22;20004;-79
2022/01/28 11:31:50;;;;;;;37.63;14.25;;;;;;;;;;6223660;22;20008;-79
2022/01/28 11:34:24;;;;;;;39.15;13.90;;;;;;;;;;6249916;22;20019;-78
2022/01/28 11:37:13;;;;;;;40.75;14.25;;;;;;;;;;6281313;22;20015;-79
2022/01/28 11:39:41;;;;;;;52.53;17.30;;;;;;;;;;6259651;22;20071;-79
2022/01/28 11:42:14;;;;;;;31.23;12.15;;;;;;;;;;6275690;22;20003;-79
2022/01/28 11:44:51;;;;;;;34.35;12.52;;;;;;;;;;6249130;22;20003;-80
2022/01/28 11:47:29;;;;;;;28.98;11.98;;;;;;;;;;6276237;22;20003;-80
2022/01/28 11:50:07;;;;;;;36.97;12.38;;;;;;;;;;6252647;22;20008;-80
2022/01/28 11:52:38;;;;;;;39.33;13.18;;;;;;;;;;6281869;22;20353;-80
2022/01/28 11:55:28;;;;;;;28.35;11.15;;;;;;;;;;6230374;22;20000;-80
2022/01/28 11:58:04;;;;;;;27.40;12.20;;;;;;;;;;6282577;22;20072;-79
2022/01/28 12:00:55;;;;;;;30.75;12.60;;;;;;;;;;6276816;22;20086;-79
2022/01/28 12:03:28;;;;;;;62.22;18.45;;;;;;;;;;6277317;22;20003;-79
2022/01/28 12:06:10;;;;;;;35.42;12.77;;;;;;;;;;6276920;22;20083;-80
2022/01/28 12:08:36;;;;;;;37.45;13.98;;;;;;;;;;6249513;22;20437;-79
2022/01/28 12:11:06;;;;;;;35.13;12.82;;;;;;;;;;6249950;22;20019;-81
2022/01/28 12:14:02;;;;;;;30.08;11.57;;;;;;;;;;6279184;22;20006;-78
2022/01/28 12:16:39;;;;;;;43.95;12.38;;;;;;;;;;6234877;22;20008;-77
2022/01/28 12:19:17;;;;;;;31.85;11.70;;;;;;;;;;6280059;22;20110;-78
2022/01/28 12:22:07;;;;;;;35.28;12.05;;;;;;;;;;6249999;22;20012;-78
2022/01/28 12:24:34;;;;;;;27.23;10.35;;;;;;;;;;6226049;22;20080;-79
2022/01/28 12:27:06;;;;;;;34.13;12.00;;;;;;;;;;6276770;22;20031;-78
2022/01/28 12:29:35;;;;;;;37.42;12.23;;;;;;;;;;6276798;22;20000;-79
2022/01/28 12:32:01;;;;;;;29.90;11.57;;;;;;;;;;6227543;22;20007;-77
2022/01/28 12:34:27;;;;;;;38.75;12.77;;;;;;;;;;6252977;22;20012;-78
2022/01/28 12:36:56;;;;;;;31.40;10.88;;;;;;;;;;6279544;22;20000;-79
2022/01/28 12:39:32;;;;;;;31.13;11.18;;;;;;;;;;6253483;22;20007;-81
2022/01/28 12:42:21;;;;;;;30.52;10.85;;;;;;;;;;6280386;22;20003;-79
2022/01/28 12:44:56;;;;;;;34.13;12.35;;;;;;;;;;6250394;22;20047;-79
2022/01/28 12:47:22;;;;;;;32.50;12.88;;;;;;;;;;6225714;22;20053;-78
2022/01/28 12:49:53;;;;;;;37.58;12.48;;;;;;;;;;6224667;22;20460;-78
2022/01/28 12:52:19;;;;;;;41.55;12.70;;;;;;;;;;6226067;22;20007;-78
2022/01/28 12:54:46;;;;;;;30.80;12.23;;;;;;;;;;6281005;22;20308;-80
2022/01/28 12:57:16;;;;;;;54.75;20.67;;;;;;;;;;6277445;22;20393;-77
2022/01/28 12:59:42;;;;;;;47.80;18.10;;;;;;;;;;6250626;22;20008;-77
2022/01/28 13:02:08;;;;;;;36.10;12.77;;;;;;;;;;6226109;22;20041;-78
2022/01/28 13:04:55;;;;;;;38.83;14.40;;;;;;;;;;6249006;22;20048;-78
2022/01/28 13:09:55;;;;;;;56.17;17.20;;;;;;;;;;6250991;22;20011;-78
2022/01/28 13:12:26;;;;;;;60.05;18.52;;;;;;;;;;6279369;22;19999;-78
2022/01/28 13:14:52;;;;;;;;;;;;;;;;;;6254865;22;20011;-78
2022/01/28 13:17:19;;;;;;;51.00;17.60;;;;;;;;;;6224885;22;19907;-80
2022/01/28 13:19:55;;;;;;;58.22;20.90;;;;;;;;;;6249839;22;20000;-81
2022/01/28 13:22:28;;;;;;;62.17;20.33;;;;;;;;;;6277367;22;20008;-79
2022/01/28 13:24:54;;;;;;;49.75;16.90;;;;;;;;;;6254259;22;20004;-79
2022/01/28 13:27:21;;;;;;;44.83;16.80;;;;;;;;;;6201307;22;19995;-79
2022/01/28 13:29:52;;;;;;;51.65;17.73;;;;;;;;;;6250951;22;20340;-78
2022/01/28 13:32:26;;;;;;;52.60;17.52;;;;;;;;;;6253572;22;20415;-81
2022/01/28 13:34:56;;;;;;;45.53;15.57;;;;;;;;;;6253306;22;19999;-79
2022/01/28 13:37:45;;;;;;;51.92;18.42;;;;;;;;;;6249988;22;20007;-79
2022/01/28 13:40:29;;;;;;;48.80;17.77;;;;;;;;;;6248701;22;19999;-78
2022/01/28 13:43:08;;;;;;;61.47;19.70;;;;;;;;;;6249478;22;20008;-78
2022/01/28 13:45:47;;;;;;;47.70;15.50;;;;;;;;;;6273731;22;20469;-78
2022/01/28 13:48:37;;;;;;;49.13;17.75;;;;;;;;;;6272815;22;20006;-80
2022/01/28 13:51:11;;;;;;;43.00;15.20;;;;;;;;;;6256401;22;20090;-79
2022/01/28 13:56:34;;;;;;;53.90;20.38;;;;;;;;;;6274043;22;20130;-79
2022/01/28 13:59:00;;;;;;;43.38;15.90;;;;;;;;;;6247173;22;20008;-79
2022/01/28 14:01:26;;;;;;;47.03;15.80;;;;;;;;;;6222665;22;19995;-79
2022/01/28 14:03:59;;;;;;;43.13;15.70;;;;;;;;;;6247344;22;20386;-80
2022/01/28 14:06:29;;;;;;;52.00;16.45;;;;;;;;;;6275426;22;20004;-79
2022/01/28 14:09:14;;;;;;;34.65;12.85;;;;;;;;;;6255144;22;20008;-80
2022/01/28 14:11:42;;;;;;;39.00;13.73;;;;;;;;;;6257692;22;19999;-80
2022/01/28 14:14:46;;;;;;;48.85;18.27;;;;;;;;;;6275359;22;20007;-81
2022/01/28 14:17:05;;;;;;;47.22;17.63;;;;;;;;;;6274737;22;20061;-80
2022/01/28 14:19:35;;;;;;;65.95;27.80;;;;;;;;;;6222840;22;20018;-80
2022/01/28 14:22:00;;;;;;;77.33;31.13;;;;;;;;;;6248150;22;20015;-80
2022/01/28 14:24:33;;;;;;;64.18;23.17;;;;;;;;;;6275230;22;20026;-80
2022/01/28 14:32:11;;;;;;;37.58;13.93;;;;;;;;;;6251746;22;19999;-79
2022/01/28 14:34:37;;;;;;;30.42;9.68;;;;;;;;;;6275917;22;20007;-79
2022/01/28 14:37:03;;;;;;;29.73;10.65;;;;;;;;;;6275787;22;20003;-79
2022/01/28 14:39:32;;;;;;;38.33;14.48;;;;;;;;;;6275058;22;20000;-79
2022/01/28 14:42:03;;;;;;;34.97;13.73;;;;;;;;;;6275372;22;19999;-79
2022/01/28 14:44:33;;;;;;;32.30;11.93;;;;;;;;;;6225254;22;20518;-79
2022/01/28 14:46:59;;;;;;;32.20;12.30;;;;;;;;;;6275407;22;20007;-79
2022/01/28 14:49:24;;;;;;;37.60;13.77;;;;;;;;;;6279865;22;20354;-80
2022/01/28 14:51:53;;;;;;;39.63;14.35;;;;;;;;;;6251456;22;20006;-79
2022/01/28 14:54:21;;;;;;;39.70;14.10;;;;;;;;;;6223815;22;20011;-81
2022/01/28 14:56:47;;;;;;;46.20;17.20;;;;;;;;;;6248461;22;20343;-80
2022/01/28 14:59:12;;;;;;;37.92;15.38;;;;;;;;;;6247636;22;20007;-80
2022/01/28 15:01:38;;;;;;;41.08;14.43;;;;;;;;;;6248045;22;20385;-79
2022/01/28 15:04:04;;;;;;;43.20;15.35;;;;;;;;;;6274674;22;20007;-79
2022/01/28 15:06:29;;;;;;;45.92;14.40;;;;;;;;;;6275410;22;20051;-79
2022/01/28 15:08:59;;;;;;;49.25;16.92;;;;;;;;;;6255079;22;20033;-79
2022/01/28 15:11:34;;;;;;;39.53;14.33;;;;;;;;;;6278697;22;20031;-79
2022/01/28 15:14:01;;;;;;;38.15;13.75;;;;;;;;;;6247690;22;20230;-79
2022/01/28 15:16:27;;;;;;;38.33;13.10;;;;;;;;;;6274638;22;20004;-79
2022/01/28 15:18:52;;;;;;;38.90;12.02;;;;;;;;;;6222403;22;20385;-80
2022/01/28 15:21:17;;;;;;;37.50;12.93;;;;;;;;;;6222230;22;20008;-80
2022/01/28 15:23:43;;;;;;;40.50;14.50;;;;;;;;;;6275037;22;20025;-80
2022/01/28 15:26:08;;;;;;;40.30;13.40;;;;;;;;;;6276138;22;20010;-79
2022/01/28 15:28:48;;;;;;;47.35;16.33;;;;;;;;;;6254065;22;20003;-80
2022/01/28 15:34:25;;;;;;;46.40;14.27;;;;;;;;;;6191032;22;20342;-80
2022/01/28 15:36:51;;;;;;;46.58;15.13;;;;;;;;;;6253022;22;20007;-80
2022/01/28 15:39:16;;;;;;;39.10;13.50;;;;;;;;;;6249503;22;20077;-81
2022/01/28 15:41:42;;;;;;;48.03;13.48;;;;;;;;;;6276731;22;20026;-80
2022/01/28 15:44:09;;;;;;;34.60;11.30;;;;;;;;;;6249810;22;20015;-80
2022/01/28 15:46:37;;;;;;;46.78;19.05;;;;;;;;;;6225362;22;20086;-80
2022/01/28 15:49:04;;;;;;;42.90;12.48;;;;;;;;;;6250325;22;20027;-79
2022/01/28 15:51:29;;;;;;;48.45;14.48;;;;;;;;;;6228913;22;20014;-80
2022/01/28 15:53:55;;;;;;;38.75;11.93;;;;;;;;;;6276699;22;20031;-80
2022/01/28 15:56:20;;;;;;;47.75;14.10;;;;;;;;;;6276472;22;20011;-81
2022/01/28 15:58:47;;;;;;;61.85;14.82;;;;;;;;;;6276427;22;20026;-79
2022/01/28 16:01:12;;;;;;;115.35;22.80;;;;;;;;;;6249358;22;20307;-80
2022/01/28 16:03:38;;;;;;;90.65;21.25;;;;;;;;;;6249490;22;20008;-81